sensor_id;sensor_type;location;lat;lon;timestamp;pressure;altitude;pressure_sealevel;temperature;humidity
72061;BME280;59925;52.136;5.420;2023-12-20T00:01:06;101679.50;;;4.94;100.00
72061;BME280;59925;52.136;5.420;2023-12-20T00:03:32;101676.25;;;4.92;100.00
72061;BME280;59925;52.136;5.420;2023-12-20T00:06:08;101677.69;;;4.95;100.00
72061;BME280;59925;52.136;5.420;2023-12-20T00:08:34;101663.16;;;4.90;100.00
72061;BME280;59925;52.136;5.420;2023-12-20T00:11:01;101664.63;;;4.86;100.00
72061;BME280;59925;52.136;5.420;2023-12-20T00:13:28;101660.97;;;4.81;100.00
72061;BME280;59925;52.136;5.420;2023-12-20T00:15:54;101659.75;;;4.76;100.00
72061;BME280;59925;52.136;5.420;2023-12-20T00:18:21;101659.97;;;4.75;100.00
72061;BME280;59925;52.136;5.420;2023-12-20T00:20:48;101657.53;;;4.73;100.00
72061;BME280;59925;52.136;5.420;2023-12-20T00:23:15;101659.75;;;4.70;100.00
72061;BME280;59925;52.136;5.420;2023-12-20T00:25:41;101666.72;;;4.64;100.00
72061;BME280;59925;52.136;5.420;2023-12-20T00:28:08;101650.81;;;4.57;100.00
72061;BME280;59925;52.136;5.420;2023-12-20T00:30:35;101652.47;;;4.52;100.00
72061;BME280;59925;52.136;5.420;2023-12-20T00:33:03;101652.47;;;4.45;100.00
72061;BME280;59925;52.136;5.420;2023-12-20T00:35:29;101657.22;;;4.43;100.00
72061;BME280;59925;52.136;5.420;2023-12-20T00:37:57;101660.28;;;4.40;100.00
72061;BME280;59925;52.136;5.420;2023-12-20T00:40:24;101662.09;;;4.39;100.00
72061;BME280;59925;52.136;5.420;2023-12-20T00:42:51;101666.78;;;4.37;100.00
72061;BME280;59925;52.136;5.420;2023-12-20T00:45:17;101660.06;;;4.35;100.00
72061;BME280;59925;52.136;5.420;2023-12-20T00:47:44;101663.56;;;4.35;100.00
72061;BME280;59925;52.136;5.420;2023-12-20T00:50:11;101654.97;;;4.33;100.00
72061;BME280;59925;52.136;5.420;2023-12-20T00:52:37;101659.06;;;4.29;100.00
72061;BME280;59925;52.136;5.420;2023-12-20T00:55:04;101654.16;;;4.26;100.00
72061;BME280;59925;52.136;5.420;2023-12-20T00:57:31;101655.00;;;4.20;100.00
72061;BME280;59925;52.136;5.420;2023-12-20T00:59:58;101668.06;;;4.14;100.00
72061;BME280;59925;52.136;5.420;2023-12-20T01:02:24;101658.06;;;4.17;100.00
72061;BME280;59925;52.136;5.420;2023-12-20T01:04:51;101658.47;;;4.13;100.00
72061;BME280;59925;52.136;5.420;2023-12-20T01:07:18;101653.56;;;4.10;100.00
72061;BME280;59925;52.136;5.420;2023-12-20T01:09:45;101646.81;;;4.08;100.00
72061;BME280;59925;52.136;5.420;2023-12-20T01:12:12;101648.06;;;4.05;100.00
72061;BME280;59925;52.136;5.420;2023-12-20T01:14:38;101643.78;;;4.04;100.00
72061;BME280;59925;52.136;5.420;2023-12-20T01:17:06;101638.69;;;4.03;100.00
72061;BME280;59925;52.136;5.420;2023-12-20T01:19:32;101643.78;;;4.04;100.00
72061;BME280;59925;52.136;5.420;2023-12-20T01:21:59;101640.13;;;3.98;100.00
72061;BME280;59925;52.136;5.420;2023-12-20T01:24:26;101646.66;;;3.96;100.00
72061;BME280;59925;52.136;5.420;2023-12-20T01:26:52;101659.91;;;3.96;100.00
72061;BME280;59925;52.136;5.420;2023-12-20T01:29:19;101658.28;;;3.95;100.00
72061;BME280;59925;52.136;5.420;2023-12-20T01:31:46;101668.47;;;3.98;100.00
72061;BME280;59925;52.136;5.420;2023-12-20T01:34:13;101663.59;;;4.02;100.00
72061;BME280;59925;52.136;5.420;2023-12-20T01:36:39;101667.66;;;4.04;100.00
72061;BME280;59925;52.136;5.420;2023-12-20T01:39:06;101664.38;;;4.09;100.00
72061;BME280;59925;52.136;5.420;2023-12-20T01:41:50;101669.91;;;4.14;100.00
72061;BME280;59925;52.136;5.420;2023-12-20T01:44:17;101668.88;;;4.15;100.00
72061;BME280;59925;52.136;5.420;2023-12-20T01:46:43;101661.31;;;4.19;100.00
72061;BME280;59925;52.136;5.420;2023-12-20T01:49:10;101654.38;;;4.18;100.00
72061;BME280;59925;52.136;5.420;2023-12-20T01:51:37;101646.63;;;4.16;100.00
72061;BME280;59925;52.136;5.420;2023-12-20T01:54:04;101649.06;;;4.18;100.00
72061;BME280;59925;52.136;5.420;2023-12-20T01:56:31;101655.41;;;4.17;100.00
72061;BME280;59925;52.136;5.420;2023-12-20T01:58:59;101659.28;;;4.14;100.00
72061;BME280;59925;52.136;5.420;2023-12-20T02:01:30;101646.22;;;4.12;100.00
72061;BME280;59925;52.136;5.420;2023-12-20T02:03:56;101651.31;;;4.14;100.00
72061;BME280;59925;52.136;5.420;2023-12-20T02:06:24;101652.97;;;4.15;100.00
72061;BME280;59925;52.136;5.420;2023-12-20T02:08:55;101659.47;;;4.12;100.00
72061;BME280;59925;52.136;5.420;2023-12-20T02:11:23;101651.50;;;4.12;100.00
72061;BME280;59925;52.136;5.420;2023-12-20T02:13:51;101649.69;;;4.13;100.00
72061;BME280;59925;52.136;5.420;2023-12-20T02:16:18;101646.03;;;4.14;100.00
72061;BME280;59925;52.136;5.420;2023-12-20T02:18:45;101648.47;;;4.16;100.00
72061;BME280;59925;52.136;5.420;2023-12-20T02:21:11;101639.47;;;4.23;100.00
72061;BME280;59925;52.136;5.420;2023-12-20T02:23:38;101638.22;;;4.26;100.00
72061;BME280;59925;52.136;5.420;2023-12-20T02:26:05;101641.50;;;4.28;100.00
72061;BME280;59925;52.136;5.420;2023-12-20T02:28:33;101643.75;;;4.31;100.00
72061;BME280;59925;52.136;5.420;2023-12-20T02:31:00;101641.69;;;4.33;100.00
72061;BME280;59925;52.136;5.420;2023-12-20T02:33:27;101639.84;;;4.34;100.00
72061;BME280;59925;52.136;5.420;2023-12-20T02:35:54;101631.69;;;4.35;100.00
72061;BME280;59925;52.136;5.420;2023-12-20T02:38:20;101635.38;;;4.34;100.00
72061;BME280;59925;52.136;5.420;2023-12-20T02:40:47;101638.81;;;4.35;100.00
72061;BME280;59925;52.136;5.420;2023-12-20T02:43:15;101632.09;;;4.32;100.00
72061;BME280;59925;52.136;5.420;2023-12-20T02:45:42;101632.72;;;4.34;100.00
72061;BME280;59925;52.136;5.420;2023-12-20T02:48:09;101623.28;;;4.38;100.00
72061;BME280;59925;52.136;5.420;2023-12-20T02:50:36;101618.81;;;4.39;100.00
72061;BME280;59925;52.136;5.420;2023-12-20T02:53:03;101620.03;;;4.43;100.00
72061;BME280;59925;52.136;5.420;2023-12-20T02:55:29;101619.19;;;4.42;100.00
72061;BME280;59925;52.136;5.420;2023-12-20T02:57:56;101618.19;;;4.43;100.00
72061;BME280;59925;52.136;5.420;2023-12-20T03:00:22;101608.19;;;4.39;100.00
72061;BME280;59925;52.136;5.420;2023-12-20T03:02:49;101615.13;;;4.40;100.00
72061;BME280;59925;52.136;5.420;2023-12-20T03:05:16;101611.88;;;4.38;100.00
72061;BME280;59925;52.136;5.420;2023-12-20T03:07:43;101605.31;;;4.40;100.00
72061;BME280;59925;52.136;5.420;2023-12-20T03:10:10;101616.56;;;4.42;100.00
72061;BME280;59925;52.136;5.420;2023-12-20T03:12:50;101614.91;;;4.48;100.00
72061;BME280;59925;52.136;5.420;2023-12-20T03:15:16;101611.44;;;4.48;100.00
72061;BME280;59925;52.136;5.420;2023-12-20T03:17:43;101603.47;;;4.48;100.00
72061;BME280;59925;52.136;5.420;2023-12-20T03:20:11;101602.00;;;4.52;100.00
72061;BME280;59925;52.136;5.420;2023-12-20T03:22:37;101599.97;;;4.54;100.00
72061;BME280;59925;52.136;5.420;2023-12-20T03:25:04;101595.28;;;4.49;100.00
72061;BME280;59925;52.136;5.420;2023-12-20T03:27:31;101589.19;;;4.49;100.00
72061;BME280;59925;52.136;5.420;2023-12-20T03:29:57;101588.34;;;4.48;100.00
72061;BME280;59925;52.136;5.420;2023-12-20T03:32:24;101577.31;;;4.51;100.00
72061;BME280;59925;52.136;5.420;2023-12-20T03:34:51;101581.00;;;4.50;100.00
72061;BME280;59925;52.136;5.420;2023-12-20T03:37:17;101599.34;;;4.52;100.00
72061;BME280;59925;52.136;5.420;2023-12-20T03:39:44;101595.03;;;4.57;100.00
72061;BME280;59925;52.136;5.420;2023-12-20T03:42:11;101598.50;;;4.65;100.00
72061;BME280;59925;52.136;5.420;2023-12-20T03:44:39;101595.63;;;4.66;100.00
72061;BME280;59925;52.136;5.420;2023-12-20T03:47:07;101594.56;;;4.74;100.00
72061;BME280;59925;52.136;5.420;2023-12-20T03:49:34;101587.59;;;4.80;100.00
72061;BME280;59925;52.136;5.420;2023-12-20T03:52:03;101599.03;;;4.87;100.00
72061;BME280;59925;52.136;5.420;2023-12-20T03:54:30;101594.13;;;4.84;100.00
72061;BME280;59925;52.136;5.420;2023-12-20T03:56:57;101596.41;;;4.80;100.00
72061;BME280;59925;52.136;5.420;2023-12-20T03:59:23;101586.97;;;4.78;100.00
72061;BME280;59925;52.136;5.420;2023-12-20T04:01:50;101585.97;;;4.79;100.00
72061;BME280;59925;52.136;5.420;2023-12-20T04:04:16;101595.38;;;4.81;100.00
72061;BME280;59925;52.136;5.420;2023-12-20T04:06:43;101595.16;;;4.83;100.00
72061;BME280;59925;52.136;5.420;2023-12-20T04:09:10;101593.09;;;4.85;100.00
72061;BME280;59925;52.136;5.420;2023-12-20T04:11:38;101596.13;;;4.88;100.00
72061;BME280;59925;52.136;5.420;2023-12-20T04:14:04;101591.63;;;4.96;100.00
72061;BME280;59925;52.136;5.420;2023-12-20T04:16:31;101587.50;;;5.00;100.00
72061;BME280;59925;52.136;5.420;2023-12-20T04:18:58;101581.38;;;4.99;100.00
72061;BME280;59925;52.136;5.420;2023-12-20T04:21:24;101579.50;;;5.00;100.00
72061;BME280;59925;52.136;5.420;2023-12-20T04:23:51;101582.56;;;5.03;100.00
72061;BME280;59925;52.136;5.420;2023-12-20T04:26:18;101581.53;;;5.04;100.00
72061;BME280;59925;52.136;5.420;2023-12-20T04:28:44;101577.19;;;5.10;100.00
72061;BME280;59925;52.136;5.420;2023-12-20T04:31:11;101580.88;;;5.16;100.00
72061;BME280;59925;52.136;5.420;2023-12-20T04:33:38;101596.38;;;5.19;100.00
72061;BME280;59925;52.136;5.420;2023-12-20T04:36:04;101589.59;;;5.23;100.00
72061;BME280;59925;52.136;5.420;2023-12-20T04:38:31;101587.56;;;5.25;100.00
72061;BME280;59925;52.136;5.420;2023-12-20T04:40:57;101592.25;;;5.23;100.00
72061;BME280;59925;52.136;5.420;2023-12-20T04:43:24;101578.16;;;5.22;100.00
72061;BME280;59925;52.136;5.420;2023-12-20T04:45:51;101579.56;;;5.25;100.00
72061;BME280;59925;52.136;5.420;2023-12-20T04:48:18;101570.75;;;5.25;100.00
72061;BME280;59925;52.136;5.420;2023-12-20T04:50:45;101583.88;;;5.26;100.00
72061;BME280;59925;52.136;5.420;2023-12-20T04:53:11;101581.97;;;5.33;100.00
72061;BME280;59925;52.136;5.420;2023-12-20T04:55:38;101578.03;;;5.36;100.00
72061;BME280;59925;52.136;5.420;2023-12-20T04:58:05;101569.88;;;5.37;100.00
72061;BME280;59925;52.136;5.420;2023-12-20T05:00:32;101560.63;;;5.40;100.00
72061;BME280;59925;52.136;5.420;2023-12-20T05:02:59;101569.81;;;5.44;100.00
72061;BME280;59925;52.136;5.420;2023-12-20T05:05:26;101558.34;;;5.44;100.00
72061;BME280;59925;52.136;5.420;2023-12-20T05:07:53;101566.94;;;5.46;100.00
72061;BME280;59925;52.136;5.420;2023-12-20T05:10:20;101566.50;;;5.49;100.00
72061;BME280;59925;52.136;5.420;2023-12-20T05:12:46;101578.78;;;5.50;100.00
72061;BME280;59925;52.136;5.420;2023-12-20T05:15:13;101568.75;;;5.52;100.00
72061;BME280;59925;52.136;5.420;2023-12-20T05:17:40;101573.81;;;5.53;100.00
72061;BME280;59925;52.136;5.420;2023-12-20T05:20:07;101563.00;;;5.55;100.00
72061;BME280;59925;52.136;5.420;2023-12-20T05:22:34;101567.84;;;5.58;100.00
72061;BME280;59925;52.136;5.420;2023-12-20T05:25:01;101581.97;;;5.59;100.00
72061;BME280;59925;52.136;5.420;2023-12-20T05:27:28;101581.56;;;5.62;100.00
72061;BME280;59925;52.136;5.420;2023-12-20T05:29:54;101576.00;;;5.63;100.00
72061;BME280;59925;52.136;5.420;2023-12-20T05:32:24;101572.75;;;5.61;100.00
72061;BME280;59925;52.136;5.420;2023-12-20T05:34:51;101576.59;;;5.65;100.00
72061;BME280;59925;52.136;5.420;2023-12-20T05:37:18;101565.97;;;5.65;100.00
72061;BME280;59925;52.136;5.420;2023-12-20T05:39:45;101573.72;;;5.67;100.00
72061;BME280;59925;52.136;5.420;2023-12-20T05:42:12;101573.28;;;5.70;100.00
72061;BME280;59925;52.136;5.420;2023-12-20T05:44:40;101570.63;;;5.70;100.00
72061;BME280;59925;52.136;5.420;2023-12-20T05:47:07;101573.06;;;5.72;100.00
72061;BME280;59925;52.136;5.420;2023-12-20T05:49:34;101566.34;;;5.69;100.00
72061;BME280;59925;52.136;5.420;2023-12-20T05:52:00;101571.22;;;5.72;100.00
72061;BME280;59925;52.136;5.420;2023-12-20T05:54:27;101569.38;;;5.73;100.00
72061;BME280;59925;52.136;5.420;2023-12-20T05:56:54;101583.88;;;5.77;100.00
72061;BME280;59925;52.136;5.420;2023-12-20T05:59:20;101570.56;;;5.77;100.00
72061;BME280;59925;52.136;5.420;2023-12-20T06:01:47;101575.06;;;5.76;100.00
72061;BME280;59925;52.136;5.420;2023-12-20T06:04:19;101567.91;;;5.77;100.00
72061;BME280;59925;52.136;5.420;2023-12-20T06:06:48;101571.59;;;5.76;100.00
72061;BME280;59925;52.136;5.420;2023-12-20T06:09:15;101564.66;;;5.75;100.00
72061;BME280;59925;52.136;5.420;2023-12-20T06:11:42;101569.53;;;5.78;100.00
72061;BME280;59925;52.136;5.420;2023-12-20T06:14:09;101563.78;;;5.81;100.00
72061;BME280;59925;52.136;5.420;2023-12-20T06:16:41;101561.69;;;5.83;100.00
72061;BME280;59925;52.136;5.420;2023-12-20T06:19:08;101551.06;;;5.83;100.00
72061;BME280;59925;52.136;5.420;2023-12-20T06:21:35;101563.56;;;5.82;100.00
72061;BME280;59925;52.136;5.420;2023-12-20T06:24:04;101563.91;;;5.86;100.00
72061;BME280;59925;52.136;5.420;2023-12-20T06:26:31;101548.56;;;5.88;100.00
72061;BME280;59925;52.136;5.420;2023-12-20T06:28:58;101556.53;;;5.88;100.00
72061;BME280;59925;52.136;5.420;2023-12-20T06:31:27;101557.72;;;5.92;100.00
72061;BME280;59925;52.136;5.420;2023-12-20T06:33:58;101542.38;;;5.94;100.00
72061;BME280;59925;52.136;5.420;2023-12-20T06:36:36;101558.34;;;5.94;100.00
72061;BME280;59925;52.136;5.420;2023-12-20T06:39:34;101552.41;;;5.92;100.00
72061;BME280;59925;52.136;5.420;2023-12-20T06:42:05;101547.88;;;5.93;100.00
72061;BME280;59925;52.136;5.420;2023-12-20T06:44:33;101556.03;;;5.98;100.00
72061;BME280;59925;52.136;5.420;2023-12-20T06:47:05;101557.22;;;6.02;100.00
72061;BME280;59925;52.136;5.420;2023-12-20T06:49:35;101548.00;;;6.05;100.00
72061;BME280;59925;52.136;5.420;2023-12-20T06:52:01;101544.16;;;6.01;100.00
72061;BME280;59925;52.136;5.420;2023-12-20T06:54:31;101541.50;;;6.01;100.00
72061;BME280;59925;52.136;5.420;2023-12-20T06:57:07;101537.81;;;6.02;100.00
72061;BME280;59925;52.136;5.420;2023-12-20T06:59:48;101543.13;;;6.02;100.00
72061;BME280;59925;52.136;5.420;2023-12-20T07:06:43;101531.38;;;6.09;100.00
72061;BME280;59925;52.136;5.420;2023-12-20T07:09:36;101535.50;;;6.05;100.00
72061;BME280;59925;52.136;5.420;2023-12-20T07:12:34;101546.97;;;6.06;100.00
72061;BME280;59925;52.136;5.420;2023-12-20T07:15:11;101544.31;;;6.06;100.00
72061;BME280;59925;52.136;5.420;2023-12-20T07:17:50;101535.31;;;6.07;100.00
72061;BME280;59925;52.136;5.420;2023-12-20T07:20:30;101542.19;;;6.15;100.00
72061;BME280;59925;52.136;5.420;2023-12-20T07:23:05;101527.00;;;6.15;100.00
72061;BME280;59925;52.136;5.420;2023-12-20T07:25:49;101520.88;;;6.15;100.00
72061;BME280;59925;52.136;5.420;2023-12-20T07:28:16;101537.66;;;6.15;100.00
72061;BME280;59925;52.136;5.420;2023-12-20T07:30:43;101536.19;;;6.19;100.00
72061;BME280;59925;52.136;5.420;2023-12-20T07:33:10;101529.00;;;6.20;100.00
72061;BME280;59925;52.136;5.420;2023-12-20T07:35:38;101527.16;;;6.20;100.00
72061;BME280;59925;52.136;5.420;2023-12-20T07:38:05;101525.06;;;6.22;100.00
72061;BME280;59925;52.136;5.420;2023-12-20T07:40:33;101521.84;;;6.20;100.00
72061;BME280;59925;52.136;5.420;2023-12-20T07:42:59;101518.94;;;6.22;100.00
72061;BME280;59925;52.136;5.420;2023-12-20T07:45:26;101517.31;;;6.21;100.00
72061;BME280;59925;52.136;5.420;2023-12-20T07:47:53;101539.44;;;6.21;100.00
72061;BME280;59925;52.136;5.420;2023-12-20T07:50:20;101534.91;;;6.22;100.00
72061;BME280;59925;52.136;5.420;2023-12-20T07:52:46;101543.25;;;6.25;100.00
72061;BME280;59925;52.136;5.420;2023-12-20T07:55:13;101543.84;;;6.27;100.00
72061;BME280;59925;52.136;5.420;2023-12-20T07:57:43;101544.47;;;6.29;100.00
72061;BME280;59925;52.136;5.420;2023-12-20T08:00:12;101543.19;;;6.32;100.00
72061;BME280;59925;52.136;5.420;2023-12-20T08:02:39;101556.88;;;6.36;100.00
72061;BME280;59925;52.136;5.420;2023-12-20T08:05:06;101558.13;;;6.33;100.00
72061;BME280;59925;52.136;5.420;2023-12-20T08:07:37;101558.50;;;6.37;100.00
72061;BME280;59925;52.136;5.420;2023-12-20T08:10:04;101572.19;;;6.40;100.00
72061;BME280;59925;52.136;5.420;2023-12-20T08:12:31;101566.03;;;6.40;100.00
72061;BME280;59925;52.136;5.420;2023-12-20T08:14:58;101570.94;;;6.43;100.00
72061;BME280;59925;52.136;5.420;2023-12-20T08:17:25;101567.22;;;6.44;100.00
72061;BME280;59925;52.136;5.420;2023-12-20T08:19:52;101565.59;;;6.43;100.00
72061;BME280;59925;52.136;5.420;2023-12-20T08:22:18;101548.00;;;6.42;100.00
72061;BME280;59925;52.136;5.420;2023-12-20T08:24:45;101561.91;;;6.44;100.00
72061;BME280;59925;52.136;5.420;2023-12-20T08:27:12;101559.84;;;6.46;100.00
72061;BME280;59925;52.136;5.420;2023-12-20T08:29:38;101546.53;;;6.46;100.00
72061;BME280;59925;52.136;5.420;2023-12-20T08:32:05;101557.97;;;6.47;100.00
72061;BME280;59925;52.136;5.420;2023-12-20T08:34:32;101549.53;;;6.50;100.00
72061;BME280;59925;52.136;5.420;2023-12-20T08:36:58;101555.66;;;6.50;100.00
72061;BME280;59925;52.136;5.420;2023-12-20T08:39:25;101546.66;;;6.51;100.00
72061;BME280;59925;52.136;5.420;2023-12-20T08:41:52;101536.00;;;6.51;100.00
72061;BME280;59925;52.136;5.420;2023-12-20T08:44:19;101540.06;;;6.54;100.00
72061;BME280;59925;52.136;5.420;2023-12-20T08:46:45;101549.91;;;6.53;100.00
72061;BME280;59925;52.136;5.420;2023-12-20T08:49:12;101546.44;;;6.53;100.00
72061;BME280;59925;52.136;5.420;2023-12-20T08:51:41;101543.53;;;6.54;100.00
72061;BME280;59925;52.136;5.420;2023-12-20T08:54:08;101543.31;;;6.56;100.00
72061;BME280;59925;52.136;5.420;2023-12-20T08:56:35;101547.03;;;6.55;100.00
72061;BME280;59925;52.136;5.420;2023-12-20T08:59:08;101542.50;;;6.55;100.00
72061;BME280;59925;52.136;5.420;2023-12-20T09:01:39;101540.88;;;6.54;100.00
72061;BME280;59925;52.136;5.420;2023-12-20T09:04:39;101553.38;;;6.54;100.00
72061;BME280;59925;52.136;5.420;2023-12-20T09:10:25;101541.69;;;6.55;100.00
72061;BME280;59925;52.136;5.420;2023-12-20T09:18:16;101536.94;;;6.57;100.00
72061;BME280;59925;52.136;5.420;2023-12-20T09:20:55;101533.91;;;6.53;100.00
72061;BME280;59925;52.136;5.420;2023-12-20T09:23:51;101540.63;;;6.56;100.00
72061;BME280;59925;52.136;5.420;2023-12-20T09:30:24;101531.75;;;6.62;100.00
72061;BME280;59925;52.136;5.420;2023-12-20T09:33:28;101547.31;;;6.65;100.00
72061;BME280;59925;52.136;5.420;2023-12-20T09:35:55;101532.69;;;6.68;100.00
72061;BME280;59925;52.136;5.420;2023-12-20T09:38:22;101528.09;;;6.75;100.00
72061;BME280;59925;52.136;5.420;2023-12-20T09:40:51;101539.25;;;6.84;100.00
72061;BME280;59925;52.136;5.420;2023-12-20T09:43:20;101543.31;;;6.86;100.00
72061;BME280;59925;52.136;5.420;2023-12-20T09:45:47;101540.41;;;6.88;100.00
72061;BME280;59925;52.136;5.420;2023-12-20T09:48:17;101540.19;;;6.89;100.00
72061;BME280;59925;52.136;5.420;2023-12-20T09:50:45;101540.78;;;6.92;100.00
72061;BME280;59925;52.136;5.420;2023-12-20T09:53:19;101539.53;;;6.94;100.00
72061;BME280;59925;52.136;5.420;2023-12-20T09:55:46;101539.19;;;7.02;100.00
72061;BME280;59925;52.136;5.420;2023-12-20T09:58:12;101541.16;;;7.07;100.00
72061;BME280;59925;52.136;5.420;2023-12-20T10:00:39;101534.56;;;7.10;100.00
72061;BME280;59925;52.136;5.420;2023-12-20T10:03:06;101546.63;;;7.12;100.00
72061;BME280;59925;52.136;5.420;2023-12-20T10:05:34;101548.38;;;7.18;100.00
72061;BME280;59925;52.136;5.420;2023-12-20T10:08:01;101561.03;;;7.23;100.00
72061;BME280;59925;52.136;5.420;2023-12-20T10:10:29;101555.47;;;7.25;100.00
72061;BME280;59925;52.136;5.420;2023-12-20T10:13:11;101564.06;;;7.27;100.00
72061;BME280;59925;52.136;5.420;2023-12-20T10:15:39;101558.50;;;7.28;100.00
72061;BME280;59925;52.136;5.420;2023-12-20T10:18:08;101557.78;;;7.33;100.00
72061;BME280;59925;52.136;5.420;2023-12-20T10:20:36;101555.38;;;7.31;100.00
72061;BME280;59925;52.136;5.420;2023-12-20T10:23:04;101552.91;;;7.30;100.00
72061;BME280;59925;52.136;5.420;2023-12-20T10:25:30;101555.13;;;7.33;100.00
72061;BME280;59925;52.136;5.420;2023-12-20T10:28:15;101549.56;;;7.34;100.00
72061;BME280;59925;52.136;5.420;2023-12-20T10:30:47;101546.22;;;7.39;100.00
72061;BME280;59925;52.136;5.420;2023-12-20T10:33:24;101541.22;;;7.43;100.00
72061;BME280;59925;52.136;5.420;2023-12-20T10:35:53;101545.28;;;7.45;100.00
72061;BME280;59925;52.136;5.420;2023-12-20T10:45:07;101529.06;;;7.47;100.00
72061;BME280;59925;52.136;5.420;2023-12-20T10:48:02;101531.13;;;7.57;100.00
72061;BME280;59925;52.136;5.420;2023-12-20T10:50:47;101526.97;;;7.61;100.00
72061;BME280;59925;52.136;5.420;2023-12-20T10:54:07;101516.16;;;7.56;100.00
72061;BME280;59925;52.136;5.420;2023-12-20T10:56:47;101519.66;;;7.56;100.00
72061;BME280;59925;52.136;5.420;2023-12-20T11:02:44;101519.31;;;7.64;100.00
72061;BME280;59925;52.136;5.420;2023-12-20T11:17:44;101513.47;;;8.03;100.00
72061;BME280;59925;52.136;5.420;2023-12-20T11:20:42;101517.38;;;8.12;100.00
72061;BME280;59925;52.136;5.420;2023-12-20T11:23:41;101505.06;;;8.11;100.00
72061;BME280;59925;52.136;5.420;2023-12-20T11:30:07;101485.16;;;7.90;100.00
72061;BME280;59925;52.136;5.420;2023-12-20T11:32:57;101492.22;;;7.96;100.00
72061;BME280;59925;52.136;5.420;2023-12-20T11:35:35;101490.44;;;8.14;100.00
72061;BME280;59925;52.136;5.420;2023-12-20T11:38:22;101484.25;;;8.25;100.00
72061;BME280;59925;52.136;5.420;2023-12-20T11:41:17;101490.59;;;8.36;100.00
72061;BME280;59925;52.136;5.420;2023-12-20T11:44:07;101481.19;;;8.34;100.00
72061;BME280;59925;52.136;5.420;2023-12-20T11:46:40;101487.25;;;8.29;100.00
72061;BME280;59925;52.136;5.420;2023-12-20T11:49:10;101472.03;;;8.29;100.00
72061;BME280;59925;52.136;5.420;2023-12-20T11:51:41;101457.88;;;8.29;100.00
72061;BME280;59925;52.136;5.420;2023-12-20T11:54:08;101466.69;;;8.29;100.00
72061;BME280;59925;52.136;5.420;2023-12-20T11:56:36;101456.84;;;8.30;100.00
72061;BME280;59925;52.136;5.420;2023-12-20T11:59:03;101451.25;;;8.32;100.00
72061;BME280;59925;52.136;5.420;2023-12-20T12:01:49;101454.25;;;8.35;100.00
72061;BME280;59925;52.136;5.420;2023-12-20T12:04:19;101454.03;;;8.37;100.00
72061;BME280;59925;52.136;5.420;2023-12-20T12:06:46;101468.09;;;8.32;100.00
72061;BME280;59925;52.136;5.420;2023-12-20T12:09:13;101461.94;;;8.32;100.00
72061;BME280;59925;52.136;5.420;2023-12-20T12:11:40;101469.72;;;8.33;100.00
72061;BME280;59925;52.136;5.420;2023-12-20T12:14:10;101468.09;;;8.32;100.00
72061;BME280;59925;52.136;5.420;2023-12-20T12:16:43;101472.63;;;8.32;100.00
72061;BME280;59925;52.136;5.420;2023-12-20T12:19:21;101469.16;;;8.31;100.00
72061;BME280;59925;52.136;5.420;2023-12-20T12:21:47;101471.56;;;8.33;100.00
72061;BME280;59925;52.136;5.420;2023-12-20T12:24:14;101470.53;;;8.34;100.00
72061;BME280;59925;52.136;5.420;2023-12-20T12:26:41;101467.59;;;8.35;100.00
72061;BME280;59925;52.136;5.420;2023-12-20T12:29:08;101461.78;;;8.38;100.00
72061;BME280;59925;52.136;5.420;2023-12-20T12:31:34;101446.31;;;8.40;100.00
72061;BME280;59925;52.136;5.420;2023-12-20T12:34:01;101442.84;;;8.40;100.00
72061;BME280;59925;52.136;5.420;2023-12-20T12:36:30;101442.03;;;8.39;100.00
72061;BME280;59925;52.136;5.420;2023-12-20T12:38:57;101444.97;;;8.38;100.00
72061;BME280;59925;52.136;5.420;2023-12-20T12:41:24;101444.97;;;8.38;100.00
72061;BME280;59925;52.136;5.420;2023-12-20T12:43:51;101435.91;;;8.39;100.00
72061;BME280;59925;52.136;5.420;2023-12-20T12:46:17;101431.81;;;8.36;100.00
72061;BME280;59925;52.136;5.420;2023-12-20T12:48:44;101424.84;;;8.35;100.00
72061;BME280;59925;52.136;5.420;2023-12-20T12:51:12;101425.91;;;8.34;100.00
72061;BME280;59925;52.136;5.420;2023-12-20T12:53:40;101425.69;;;8.36;100.00
72061;BME280;59925;52.136;5.420;2023-12-20T12:56:07;101440.88;;;8.35;100.00
72061;BME280;59925;52.136;5.420;2023-12-20T12:58:34;101430.44;;;8.34;100.00
72061;BME280;59925;52.136;5.420;2023-12-20T13:01:01;101417.09;;;8.34;100.00
72061;BME280;59925;52.136;5.420;2023-12-20T13:03:28;101420.00;;;8.32;100.00
72061;BME280;59925;52.136;5.420;2023-12-20T13:05:54;101418.38;;;8.31;100.00
72061;BME280;59925;52.136;5.420;2023-12-20T13:08:21;101407.91;;;8.29;100.00
72061;BME280;59925;52.136;5.420;2023-12-20T13:10:48;101400.97;;;8.28;100.00
72061;BME280;59925;52.136;5.420;2023-12-20T13:13:15;101393.19;;;8.27;100.00
72061;BME280;59925;52.136;5.420;2023-12-20T13:15:41;101402.25;;;8.26;100.00
72061;BME280;59925;52.136;5.420;2023-12-20T13:18:08;101399.00;;;8.24;100.00
72061;BME280;59925;52.136;5.420;2023-12-20T13:20:35;101394.13;;;8.21;100.00
72061;BME280;59925;52.136;5.420;2023-12-20T13:23:01;101384.53;;;8.20;100.00
72061;BME280;59925;52.136;5.420;2023-12-20T13:25:28;101371.41;;;8.18;100.00
72061;BME280;59925;52.136;5.420;2023-12-20T13:27:54;101375.94;;;8.18;100.00
72061;BME280;59925;52.136;5.420;2023-12-20T13:30:21;101369.78;;;8.17;100.00
72061;BME280;59925;52.136;5.420;2023-12-20T13:32:48;101368.97;;;8.17;100.00
72061;BME280;59925;52.136;5.420;2023-12-20T13:35:15;101366.53;;;8.15;100.00
72061;BME280;59925;52.136;5.420;2023-12-20T13:37:42;101356.88;;;8.14;100.00
72061;BME280;59925;52.136;5.420;2023-12-20T13:40:11;101350.75;;;8.13;100.00
72061;BME280;59925;52.136;5.420;2023-12-20T13:42:39;101343.53;;;8.14;100.00
72061;BME280;59925;52.136;5.420;2023-12-20T13:45:07;101339.81;;;8.15;100.00